Time;durP1;ratioP1;P1;durP2;ratioP2;P2;SDS_P1;SDS_P2;PMS_P1;PMS_P2;Temp;Humidity;BMP_temperature;BMP_pressure;BME280_temperature;BME280_humidity;BME280_pressure;Samples;Min_cycle;Max_cycle;Signal;HPM_P1;HPM_P2
2023/07/06 00:01:46;;;;;;;13.00;11.20;;;;;;;21.80;64.42;99422.10;107241;1257;72677;-38
2023/07/06 00:04:14;;;;;;;13.70;10.80;;;;;;;21.76;64.69;99422.66;107239;1256;61639;-38
2023/07/06 00:06:42;;;;;;;14.60;11.10;;;;;;;21.79;65.04;99426.77;107257;1255;61035;-38
2023/07/06 00:09:10;;;;;;;20.10;11.10;;;;;;;21.82;65.19;99430.80;107231;1257;73930;-38
2023/07/06 00:11:38;;;;;;;15.00;11.50;;;;;;;21.81;65.42;99430.35;107213;1257;66284;-38
2023/07/06 00:14:07;;;;;;;15.50;11.40;;;;;;;21.79;65.88;99429.14;107260;1256;72778;-38
2023/07/06 00:16:35;;;;;;;15.40;11.20;;;;;;;21.77;66.51;99426.59;107125;1261;59238;-38
2023/07/06 00:19:03;;;;;;;14.20;11.20;;;;;;;21.74;66.82;99425.94;107202;1257;60272;-38
2023/07/06 00:21:31;;;;;;;13.00;10.20;;;;;;;21.75;66.91;99424.35;107226;1256;73832;-38
2023/07/06 00:24:00;;;;;;;13.50;10.70;;;;;;;21.78;66.91;99423.64;107233;1256;67158;-38
2023/07/06 00:26:27;;;;;;;15.70;11.50;;;;;;;21.80;67.25;99421.70;107224;1256;72693;-37
2023/07/06 00:28:55;;;;;;;18.40;11.20;;;;;;;21.80;66.96;99417.68;107196;1256;60414;-38
2023/07/06 00:31:40;;;;;;;16.40;11.30;;;;;;;21.79;66.76;99416.59;107199;1256;59694;-38
2023/07/06 00:34:09;;;;;;;14.70;11.70;;;;;;;21.79;66.71;99415.80;107233;1256;71953;-38
2023/07/06 00:36:37;;;;;;;16.10;12.10;;;;;;;21.77;66.72;99415.02;107370;1260;66320;-38
2023/07/06 00:39:05;;;;;;;14.60;11.60;;;;;;;21.74;66.73;99417.36;107223;1257;72709;-38
2023/07/06 00:41:33;;;;;;;16.30;10.90;;;;;;;21.75;66.63;99422.15;107224;1255;61672;-38
2023/07/06 00:44:01;;;;;;;13.90;11.10;;;;;;;21.78;66.60;99420.80;107155;1254;60540;-38
2023/07/06 00:46:36;;;;;;;13.80;11.50;;;;;;;21.79;66.19;99421.25;107389;1254;72540;-38
2023/07/06 00:49:05;;;;;;;13.60;11.20;;;;;;;21.80;66.13;99419.72;107401;1254;68368;-38
2023/07/06 00:51:37;;;;;;;14.00;12.10;;;;;;;21.80;66.07;99417.75;107279;1260;72509;-38
2023/07/06 00:54:12;;;;;;;14.60;11.70;;;;;;;21.79;65.89;99416.91;107393;1260;60497;-38
2023/07/06 00:56:42;;;;;;;17.00;11.80;;;;;;;21.78;66.21;99420.48;107391;1254;60316;-38
2023/07/06 00:59:12;;;;;;;13.50;11.10;;;;;;;21.78;66.16;99418.20;107299;1254;72985;-38
2023/07/06 01:01:44;;;;;;;;;;;;;;;21.82;66.25;99419.27;107425;1254;67617;-37
2023/07/06 01:04:14;;;;;;;17.20;11.00;;;;;;;21.79;66.23;99415.33;107385;1254;72707;-38
2023/07/06 01:06:43;;;;;;;;;;;;;;;21.76;66.45;99416.35;107260;1254;60533;-38
2023/07/06 01:09:12;;;;;;;14.60;11.90;;;;;;;21.74;66.68;99418.06;107396;1254;60284;-38
2023/07/06 01:11:41;;;;;;;15.50;11.80;;;;;;;21.72;67.02;99417.25;107392;1254;73901;-38
2023/07/06 01:14:12;;;;;;;12.70;11.00;;;;;;;21.75;67.38;99410.54;107400;1254;66389;-38
2023/07/06 01:16:43;;;;;;;13.10;10.70;;;;;;;21.81;67.66;99412.30;107322;1260;73176;-38
2023/07/06 01:19:29;;;;;;;12.70;10.90;;;;;;;21.87;67.68;99403.98;107362;1257;60577;-38
2023/07/06 01:22:02;;;;;;;15.10;10.90;;;;;;;21.92;67.45;99402.39;107370;1255;60294;-38
2023/07/06 01:24:37;;;;;;;15.80;10.90;;;;;;;21.94;67.34;99398.33;107266;1254;73092;-38
2023/07/06 01:27:24;;;;;;;15.50;11.20;;;;;;;21.97;67.31;99396.49;107386;1254;65836;-38
2023/07/06 01:30:04;;;;;;;18.20;11.40;;;;;;;22.01;67.20;99394.29;107384;1256;71397;-38
2023/07/06 01:32:32;;;;;;;;;;;;;;;22.01;67.09;99392.77;107230;1254;61806;-38
2023/07/06 01:35:07;;;;;;;12.20;10.10;;;;;;;22.03;66.98;99391.05;107390;1254;60296;-38
2023/07/06 01:37:36;;;;;;;14.30;10.40;;;;;;;22.07;66.80;99387.79;107379;1253;72961;-38
2023/07/06 01:40:09;;;;;;;14.50;10.80;;;;;;;22.13;66.65;99387.27;107334;1254;67632;-38
2023/07/06 01:42:40;;;;;;;15.60;11.70;;;;;;;22.17;66.47;99390.69;107342;1255;72628;-38
2023/07/06 01:45:16;;;;;;;14.40;11.10;;;;;;;22.20;66.33;99391.58;107384;1257;60955;-38
2023/07/06 01:47:52;;;;;;;17.50;11.60;;;;;;;22.21;66.28;99395.06;107429;1253;60952;-38
2023/07/06 01:50:21;;;;;;;19.00;11.20;;;;;;;22.22;66.30;99394.18;107404;1255;73859;-38
2023/07/06 01:52:49;;;;;;;14.90;10.30;;;;;;;22.25;66.11;99391.73;107362;1254;67600;-38
2023/07/06 01:55:26;;;;;;;17.80;11.60;;;;;;;22.30;65.71;99392.46;107400;1254;72664;-38
2023/07/06 01:58:09;;;;;;;12.50;10.40;;;;;;;22.31;65.46;99390.55;107296;1262;60431;-38
2023/07/06 02:00:39;;;;;;;15.40;11.70;;;;;;;22.31;65.40;99392.11;107425;1254;60526;-38
2023/07/06 02:03:07;;;;;;;13.80;11.20;;;;;;;22.30;65.47;99391.18;107394;1254;73897;-38
2023/07/06 02:05:36;;;;;;;17.50;12.00;;;;;;;22.28;65.62;99387.92;107348;1254;67590;-38
2023/07/06 02:08:08;;;;;;;15.00;10.60;;;;;;;22.27;65.66;99386.46;107453;1254;72654;-37
2023/07/06 02:10:36;;;;;;;16.20;11.80;;;;;;;22.28;65.65;99385.88;107413;1257;60605;-38
2023/07/06 02:13:03;;;;;;;17.50;11.60;;;;;;;22.31;65.65;99385.47;107326;1254;60289;-37
2023/07/06 02:15:31;;;;;;;16.20;11.10;;;;;;;22.31;65.51;99387.91;107401;1254;73887;-38
2023/07/06 02:18:01;;;;;;;14.10;11.20;;;;;;;22.32;65.59;99385.45;107432;1254;66318;-38
2023/07/06 02:20:29;;;;;;;13.90;11.50;;;;;;;22.33;65.49;99387.16;107302;1254;72691;-38
2023/07/06 02:23:04;;;;;;;14.20;12.00;;;;;;;22.32;65.62;99391.30;107407;1257;60401;-38
2023/07/06 02:25:32;;;;;;;18.60;11.00;;;;;;;22.28;65.75;99393.60;107420;1254;60491;-38
2023/07/06 02:28:00;;;;;;;12.60;10.60;;;;;;;22.30;65.66;99401.30;107422;1254;73889;-37
2023/07/06 02:30:28;;;;;;;15.40;11.10;;;;;;;22.32;65.60;99401.30;107421;1254;66427;-38
2023/07/06 02:32:56;;;;;;;13.00;11.30;;;;;;;22.33;65.62;99403.73;107404;1254;72670;-38
2023/07/06 02:35:24;;;;;;;14.90;11.30;;;;;;;22.33;65.48;99403.24;107381;1257;60431;-37
2023/07/06 02:37:52;;;;;;;15.70;11.70;;;;;;;22.31;65.56;99403.23;107292;1254;60021;-37
2023/07/06 02:40:20;;;;;;;14.30;11.10;;;;;;;22.29;66.41;99401.01;107414;1254;73828;-38
2023/07/06 02:42:48;;;;;;;14.20;10.50;;;;;;;22.20;67.23;99400.70;107411;1254;67593;-38
2023/07/06 02:45:17;;;;;;;15.60;10.90;;;;;;;22.13;67.28;99410.85;107426;1260;71379;-38
2023/07/06 02:47:45;;;;;;;16.40;11.50;;;;;;;22.02;66.47;99422.89;107385;1254;60419;-38
2023/07/06 02:50:13;;;;;;;16.50;13.50;;;;;;;21.85;66.72;99428.66;107248;1255;60502;-37
2023/07/06 02:52:44;;;;;;;14.90;13.30;;;;;;;21.70;67.16;99431.88;107354;1254;73831;-39
2023/07/06 02:55:12;;;;;;;20.60;15.10;;;;;;;21.57;67.75;99429.55;107280;1254;66287;-37
2023/07/06 02:57:40;;;;;;;19.60;14.70;;;;;;;21.46;69.01;99430.35;107373;1256;71424;-37
2023/07/06 03:00:12;;;;;;;20.70;14.90;;;;;;;21.39;70.44;99431.32;107298;1254;59895;-37
2023/07/06 03:02:41;;;;;;;20.50;14.60;;;;;;;21.30;72.11;99428.38;107420;1254;60410;-38
2023/07/06 03:05:09;;;;;;;18.00;14.60;;;;;;;21.20;72.71;99416.77;107409;1254;72915;-38
2023/07/06 03:07:37;;;;;;;21.30;14.10;;;;;;;21.20;73.41;99413.71;107322;1257;66307;-38
2023/07/06 03:10:07;;;;;;;19.80;14.70;;;;;;;21.26;73.46;99414.77;107346;1254;71092;-38
2023/07/06 03:12:37;;;;;;;;;;;;;;;21.33;74.15;99401.29;107464;1255;60371;-38
2023/07/06 03:15:15;;;;;;;20.30;14.30;;;;;;;21.36;74.93;99394.97;107326;1254;60465;-38
2023/07/06 03:17:48;;;;;;;20.70;15.30;;;;;;;21.44;75.30;99386.83;107300;1254;73856;-38
2023/07/06 03:20:19;;;;;;;23.90;14.60;;;;;;;21.54;75.37;99373.73;107400;1254;66607;-38
2023/07/06 03:22:48;;;;;;;20.90;13.50;;;;;;;21.68;75.30;99369.91;107498;1259;72836;-38
2023/07/06 03:25:16;;;;;;;19.30;13.30;;;;;;;21.83;75.71;99365.95;107259;1260;59427;-38
2023/07/06 03:27:46;;;;;;;17.10;13.50;;;;;;;21.93;75.74;99361.05;107268;1254;60423;-38
2023/07/06 03:30:15;;;;;;;20.30;13.80;;;;;;;22.02;75.70;99353.23;107460;1260;73838;-38
2023/07/06 03:32:43;;;;;;;18.00;12.50;;;;;;;22.12;75.69;99347.60;107399;1254;67566;-38
2023/07/06 03:35:11;;;;;;;15.60;11.30;;;;;;;22.23;75.83;99342.80;107362;1257;72684;-38
2023/07/06 03:37:42;;;;;;;19.20;12.90;;;;;;;22.36;75.63;99339.02;107442;1260;60438;-38
2023/07/06 03:40:10;;;;;;;15.40;12.40;;;;;;;22.46;75.39;99332.32;107471;1253;60597;-38
2023/07/06 03:42:39;;;;;;;17.10;12.30;;;;;;;22.54;75.37;99327.91;107446;1254;72722;-38
2023/07/06 03:45:08;;;;;;;16.40;12.50;;;;;;;22.59;75.33;99327.34;107420;1254;66325;-38
2023/07/06 03:47:37;;;;;;;17.00;11.90;;;;;;;22.68;75.46;99325.25;107424;1254;72677;-38
2023/07/06 03:50:09;;;;;;;16.80;11.70;;;;;;;22.77;75.09;99322.41;107398;1257;60421;-38
2023/07/06 03:52:40;;;;;;;16.10;12.70;;;;;;;22.81;75.24;99332.23;107405;1257;60729;-38
2023/07/06 03:55:19;;;;;;;17.90;12.20;;;;;;;22.86;75.40;99333.66;107356;1254;72558;-38
2023/07/06 03:57:49;;;;;;;16.40;11.80;;;;;;;22.90;75.41;99334.85;107506;1254;67905;-38
2023/07/06 04:00:33;;;;;;;13.30;10.90;;;;;;;22.99;75.83;99329.52;107381;1254;71911;-38
2023/07/06 04:03:01;;;;;;;;;;;;;;;23.07;75.77;99329.65;107460;1254;60309;-38
2023/07/06 04:05:32;;;;;;;15.00;13.30;;;;;;;23.04;76.18;99328.42;107409;1254;60421;-38
2023/07/06 04:08:12;;;;;;;16.30;13.40;;;;;;;22.99;76.97;99328.89;107440;1254;73890;-38
2023/07/06 04:10:40;;;;;;;16.90;13.00;;;;;;;23.09;77.21;99321.14;107399;1254;67885;-38
2023/07/06 04:13:09;;;;;;;14.30;12.10;;;;;;;23.20;77.17;99325.68;107547;1254;72783;-38
2023/07/06 04:15:38;;;;;;;;;;;;;;;23.31;77.34;99325.23;107424;1254;60606;-38
2023/07/06 04:18:06;;;;;;;15.20;12.70;;;;;;;23.34;77.47;99323.39;107407;1254;60417;-38
2023/07/06 04:20:36;;;;;;;15.20;12.20;;;;;;;23.35;77.88;99329.84;107409;1254;72576;-38
2023/07/06 04:23:04;;;;;;;17.50;12.90;;;;;;;23.45;77.82;99329.94;107374;1255;68065;-38
2023/07/06 04:25:33;;;;;;;17.90;14.70;;;;;;;23.48;77.22;99328.80;107352;1254;72017;-38
2023/07/06 04:28:03;;;;;;;19.40;14.30;;;;;;;23.47;77.06;99334.37;107429;1254;60335;-38
2023/07/06 04:30:33;;;;;;;22.40;15.00;;;;;;;23.43;76.90;99333.98;107411;1256;60322;-38
2023/07/06 04:33:01;;;;;;;18.40;13.70;;;;;;;23.38;76.88;99332.01;107394;1254;73498;-38
2023/07/06 04:35:29;;;;;;;16.20;13.40;;;;;;;23.40;76.70;99333.23;107442;1254;67873;-38
2023/07/06 04:37:59;;;;;;;17.20;14.60;;;;;;;23.44;77.07;99330.73;107448;1254;72705;-38
2023/07/06 04:40:27;;;;;;;22.30;15.10;;;;;;;23.53;77.03;99329.40;107453;1254;60261;-38
2023/07/06 04:42:55;;;;;;;20.30;15.60;;;;;;;23.64;77.28;99320.48;107405;1255;60992;-38
2023/07/06 04:45:25;;;;;;;19.20;15.20;;;;;;;23.73;76.84;99324.66;107365;1254;74321;-38
2023/07/06 04:48:00;;;;;;;20.40;14.50;;;;;;;23.85;76.23;99326.94;107435;1254;66312;-38
2023/07/06 04:50:31;;;;;;;15.70;13.90;;;;;;;23.94;75.05;99327.91;107364;1254;71117;-38
2023/07/06 04:53:01;;;;;;;17.50;14.20;;;;;;;23.99;74.84;99334.77;107418;1254;60294;-38
2023/07/06 04:55:29;;;;;;;15.00;13.40;;;;;;;24.06;74.89;99331.73;107471;1254;60303;-38
2023/07/06 04:57:58;;;;;;;15.10;13.20;;;;;;;24.14;74.89;99332.16;107487;1254;73863;-38
2023/07/06 05:00:30;;;;;;;20.40;13.90;;;;;;;24.24;74.55;99329.77;107414;1254;66349;-38
2023/07/06 05:03:00;;;;;;;19.30;14.20;;;;;;;24.34;74.70;99326.43;107506;1254;72686;-38
2023/07/06 05:05:31;;;;;;;17.10;13.40;;;;;;;24.43;74.52;99318.97;107395;1255;61376;-38
2023/07/06 05:07:59;;;;;;;22.40;14.40;;;;;;;24.51;74.07;99318.98;107424;1254;60574;-38
2023/07/06 05:10:27;;;;;;;16.70;13.70;;;;;;;24.59;73.49;99322.88;107397;1254;73891;-38
2023/07/06 05:12:58;;;;;;;18.60;13.40;;;;;;;24.65;73.22;99320.72;107391;1254;68233;-38
2023/07/06 05:15:25;;;;;;;16.90;14.10;;;;;;;24.75;73.01;99319.88;107372;1260;73179;-38
2023/07/06 05:17:54;;;;;;;17.80;14.40;;;;;;;24.83;73.07;99322.88;107358;1255;60239;-38
2023/07/06 05:20:22;;;;;;;19.20;14.80;;;;;;;24.88;73.05;99322.38;107403;1259;60520;-38
2023/07/06 05:22:50;;;;;;;20.10;14.50;;;;;;;24.92;72.98;99323.33;107298;1254;73866;-38
2023/07/06 05:25:19;;;;;;;17.70;13.80;;;;;;;24.95;72.75;99317.83;107355;1257;66747;-38
2023/07/06 05:27:47;;;;;;;25.90;13.80;;;;;;;25.02;72.35;99311.44;107460;1256;72640;-38
2023/07/06 05:30:15;;;;;;;17.90;13.50;;;;;;;25.12;72.47;99314.12;107347;1254;60316;-38
2023/07/06 05:32:48;;;;;;;17.60;14.10;;;;;;;25.21;72.70;99310.52;107350;1254;60418;-38
2023/07/06 05:35:18;;;;;;;19.60;14.50;;;;;;;25.27;72.95;99304.61;107410;1254;73841;-38
2023/07/06 05:37:46;;;;;;;18.30;13.60;;;;;;;25.34;72.98;99304.81;107427;1254;67588;-38
2023/07/06 05:40:14;;;;;;;21.50;13.70;;;;;;;25.41;73.06;99300.78;107340;1254;72661;-37
2023/07/06 05:42:41;;;;;;;17.00;13.50;;;;;;;25.50;73.38;99298.32;107379;1256;60418;-38
2023/07/06 05:45:09;;;;;;;16.00;13.60;;;;;;;25.59;73.35;99294.09;107372;1254;60296;-38
2023/07/06 05:47:37;;;;;;;16.60;13.60;;;;;;;25.67;73.62;99296.23;107382;1254;73838;-38
2023/07/06 05:50:05;;;;;;;18.60;12.80;;;;;;;25.74;73.54;99293.90;107372;1254;67710;-38
2023/07/06 05:52:33;;;;;;;16.00;12.20;;;;;;;25.85;73.12;99293.09;107247;1260;72750;-38
2023/07/06 05:55:01;;;;;;;19.40;12.30;;;;;;;26.00;72.90;99289.31;107125;1259;60448;-38
2023/07/06 05:57:28;;;;;;;17.40;12.30;;;;;;;26.12;72.83;99289.81;107132;1256;60404;-38
2023/07/06 05:59:56;;;;;;;15.20;12.20;;;;;;;26.24;72.50;99290.39;107101;1256;73831;-38
2023/07/06 06:02:23;;;;;;;16.00;11.50;;;;;;;26.33;71.78;99288.20;107111;1256;66767;-38
2023/07/06 06:04:51;;;;;;;18.40;12.10;;;;;;;26.46;71.07;99289.61;107223;1257;71453;-38
2023/07/06 06:07:20;;;;;;;16.30;11.20;;;;;;;26.61;70.45;99287.96;107079;1256;60334;-38
2023/07/06 06:09:47;;;;;;;15.90;11.50;;;;;;;26.72;68.94;99290.04;107283;1256;60257;-38
2023/07/06 06:12:19;;;;;;;17.40;12.10;;;;;;;26.78;67.58;99290.84;107082;1262;73867;-38
2023/07/06 06:14:47;;;;;;;15.10;12.70;;;;;;;26.80;68.15;99294.57;107085;1256;68322;-39
2023/07/06 06:17:16;;;;;;;15.60;11.80;;;;;;;26.79;68.51;99293.64;107134;1262;72713;-38
2023/07/06 06:19:45;;;;;;;14.40;12.30;;;;;;;26.80;68.41;99291.30;107075;1258;60447;-38
2023/07/06 06:22:15;;;;;;;16.30;12.30;;;;;;;26.81;68.38;99292.52;107150;1256;60495;-38
2023/07/06 06:24:44;;;;;;;19.40;12.40;;;;;;;26.83;68.85;99296.01;107145;1256;72650;-39
2023/07/06 06:27:14;;;;;;;;;;;;;;;26.85;68.45;99296.26;107147;1256;67907;-38
2023/07/06 06:29:42;;;;;;;19.20;11.70;;;;;;;26.77;68.34;99295.41;106947;1256;196688;-39
2023/07/06 06:34:39;;;;;;;16.70;11.50;;;;;;;26.80;68.21;99292.80;104241;1292;601198;-37
2023/07/06 06:37:09;;;;;;;18.00;12.00;;;;;;;26.90;67.82;99297.29;106683;1269;61683;-38
2023/07/06 06:39:38;;;;;;;17.60;12.00;;;;;;;27.00;66.87;99298.42;106660;1266;60030;-38
2023/07/06 06:42:07;;;;;;;15.70;12.00;;;;;;;27.05;66.25;99299.87;106748;1266;72263;-38
2023/07/06 06:44:35;;;;;;;16.90;12.50;;;;;;;27.09;65.59;99303.40;106778;1264;68136;-38
2023/07/06 06:47:04;;;;;;;17.80;12.20;;;;;;;27.11;64.98;99306.02;106722;1269;72149;-38
2023/07/06 06:49:33;;;;;;;13.90;10.80;;;;;;;27.12;64.70;99307.97;106650;1262;60766;-39
2023/07/06 06:52:02;;;;;;;14.50;10.40;;;;;;;27.20;65.26;99305.40;106965;1263;59310;-38
2023/07/06 06:54:30;;;;;;;16.40;11.70;;;;;;;27.34;64.98;99301.80;106948;1264;70946;-38
2023/07/06 06:56:58;;;;;;;16.90;11.60;;;;;;;27.47;64.36;99305.91;106934;1266;68088;-38
2023/07/06 06:59:27;;;;;;;15.00;11.30;;;;;;;27.56;63.49;99305.71;106846;1262;72659;-39
2023/07/06 07:01:56;;;;;;;16.00;12.10;;;;;;;27.63;63.33;99304.44;106869;1263;60101;-38
2023/07/06 07:04:24;;;;;;;15.90;11.90;;;;;;;27.68;62.94;99312.48;106868;1264;60019;-38
2023/07/06 07:06:52;;;;;;;14.30;12.00;;;;;;;27.70;62.72;99310.95;106861;1263;73544;-38
2023/07/06 07:09:19;;;;;;;17.60;11.90;;;;;;;27.73;63.61;99314.60;106872;1269;66345;-38
2023/07/06 07:11:47;;;;;;;14.90;10.80;;;;;;;27.81;63.31;99312.89;106845;1264;72765;-38
2023/07/06 07:14:15;;;;;;;12.10;10.70;;;;;;;27.92;62.16;99311.84;107295;1257;60164;-38
2023/07/06 07:16:43;;;;;;;17.50;11.40;;;;;;;27.98;61.09;99313.60;107310;1257;60055;-38
2023/07/06 07:19:11;;;;;;;14.80;11.30;;;;;;;28.01;60.98;99316.95;107254;1260;73026;-38
2023/07/06 07:21:38;;;;;;;17.10;11.80;;;;;;;28.03;61.21;99321.14;107220;1260;67740;-39
2023/07/06 07:24:08;;;;;;;13.10;10.90;;;;;;;28.11;60.69;99323.85;107313;1257;72706;-38
2023/07/06 07:26:36;;;;;;;15.20;11.80;;;;;;;28.17;59.91;99323.20;107302;1256;60534;-38
2023/07/06 07:29:06;;;;;;;14.60;10.90;;;;;;;28.20;59.85;99324.92;107274;1257;60069;-39
2023/07/06 07:31:33;;;;;;;12.60;10.80;;;;;;;28.22;60.19;99324.05;107266;1260;73029;-39
2023/07/06 07:34:02;;;;;;;14.80;10.90;;;;;;;28.29;60.30;99327.92;107260;1258;68085;-39
2023/07/06 07:36:29;;;;;;;10.70;9.50;;;;;;;28.40;59.39;99326.69;107245;1258;71369;-38
2023/07/06 07:38:57;;;;;;;14.40;10.40;;;;;;;28.53;58.30;99331.98;107297;1257;60115;-39
2023/07/06 07:41:25;;;;;;;11.60;9.80;;;;;;;28.63;57.37;99329.61;107320;1259;60279;-39
2023/07/06 07:43:53;;;;;;;12.10;9.90;;;;;;;28.68;56.52;99333.69;107303;1260;72422;-38
2023/07/06 07:46:22;;;;;;;12.30;10.60;;;;;;;28.70;56.16;99331.55;107294;1260;67549;-38
2023/07/06 07:48:50;;;;;;;14.50;9.60;;;;;;;28.71;56.94;99331.27;107301;1257;72695;-39
2023/07/06 07:51:21;;;;;;;13.20;10.30;;;;;;;28.71;56.58;99329.99;107265;1257;59257;-39
2023/07/06 07:53:50;;;;;;;12.30;10.70;;;;;;;28.72;56.01;99331.29;107310;1255;60225;-38
2023/07/06 07:56:17;;;;;;;14.50;10.90;;;;;;;28.73;55.91;99328.52;107407;1259;72200;-38
2023/07/06 07:58:48;;;;;;;10.90;9.70;;;;;;;28.73;56.03;99332.59;107310;1260;67570;-38
2023/07/06 08:01:18;;;;;;;11.60;9.60;;;;;;;28.74;55.08;99333.61;107265;1260;71800;-39
2023/07/06 08:03:46;;;;;;;11.20;9.60;;;;;;;28.78;55.83;99329.83;107268;1260;60095;-39
2023/07/06 08:06:16;;;;;;;10.50;9.50;;;;;;;28.83;55.22;99328.93;107244;1257;60024;-38
2023/07/06 08:08:45;;;;;;;11.60;9.10;;;;;;;28.86;53.99;99314.86;107313;1257;73055;-39
2023/07/06 08:11:14;;;;;;;10.80;9.30;;;;;;;28.91;53.87;99312.45;107317;1258;66399;-39
2023/07/06 08:13:45;;;;;;;10.20;9.30;;;;;;;28.97;53.85;99313.77;107343;1260;72692;-39
2023/07/06 08:16:13;;;;;;;10.70;8.60;;;;;;;29.04;53.18;99315.38;107305;1258;60108;-39
2023/07/06 08:18:43;;;;;;;10.80;9.10;;;;;;;29.14;53.49;99312.32;107300;1257;60029;-38
2023/07/06 08:21:13;;;;;;;14.00;9.70;;;;;;;29.29;53.99;99313.09;107269;1260;73320;-39
2023/07/06 08:24:01;;;;;;;10.90;9.60;;;;;;;29.51;54.08;99310.75;107293;1257;65951;-39
2023/07/06 08:26:31;;;;;;;11.30;9.30;;;;;;;29.65;53.33;99310.45;107244;1260;72812;-39
2023/07/06 08:28:59;;;;;;;16.00;9.30;;;;;;;29.73;52.36;99310.04;107327;1260;60351;-39
2023/07/06 08:31:26;;;;;;;9.50;8.50;;;;;;;29.79;52.13;99307.41;107308;1260;60489;-39
2023/07/06 08:33:55;;;;;;;10.20;8.90;;;;;;;29.89;52.44;99309.46;107305;1257;73064;-39
2023/07/06 08:36:23;;;;;;;10.60;8.80;;;;;;;30.01;51.74;99312.34;107328;1258;66729;-39
2023/07/06 08:38:54;;;;;;;9.30;8.10;;;;;;;30.14;50.62;99312.58;107258;1257;72705;-39
2023/07/06 08:41:29;;;;;;;10.90;7.50;;;;;;;30.25;48.23;99311.90;107315;1257;60049;-39
2023/07/06 08:43:59;;;;;;;7.80;7.00;;;;;;;30.36;47.73;99313.63;107332;1256;60091;-39
2023/07/06 08:46:28;;;;;;;8.30;6.90;;;;;;;30.49;47.16;99312.95;107313;1257;71935;-39
2023/07/06 08:48:56;;;;;;;7.70;6.60;;;;;;;30.63;46.97;99313.98;107291;1257;67993;-39
2023/07/06 08:51:30;;;;;;;9.50;7.10;;;;;;;30.78;46.02;99309.96;107208;1260;71883;-39
2023/07/06 08:54:02;;;;;;;7.60;6.50;;;;;;;30.92;45.79;99306.29;107341;1260;60130;-39
2023/07/06 08:56:34;;;;;;;8.50;6.60;;;;;;;31.05;44.59;99308.05;107224;1257;60051;-39
2023/07/06 08:59:03;;;;;;;8.60;6.10;;;;;;;31.17;43.19;99309.52;107266;1260;73081;-39
2023/07/06 09:01:31;;;;;;;7.70;6.30;;;;;;;31.27;41.73;99309.46;107323;1260;66313;-39
2023/07/06 09:04:01;;;;;;;8.70;6.40;;;;;;;31.38;41.23;99305.94;107071;1257;73113;-39
2023/07/06 09:06:29;;;;;;;;;;;;;;;31.49;40.75;99303.02;107344;1257;60094;-39
2023/07/06 09:09:02;;;;;;;10.50;7.30;;;;;;;31.56;41.25;99307.50;107297;1258;59727;-39
2023/07/06 09:11:34;;;;;;;15.20;6.70;;;;;;;31.59;41.62;99302.98;107254;1261;73079;-39
2023/07/06 09:14:07;;;;;;;10.80;6.90;;;;;;;31.69;40.99;99299.14;107303;1260;67585;-39
2023/07/06 09:16:36;;;;;;;7.70;6.90;;;;;;;31.78;40.48;99302.17;107296;1256;71045;-39
2023/07/06 09:19:11;;;;;;;9.90;7.00;;;;;;;31.84;41.23;99302.24;107349;1260;60551;-38
2023/07/06 09:21:39;;;;;;;8.60;7.40;;;;;;;31.92;41.83;99304.00;107303;1260;60135;-39
2023/07/06 09:24:08;;;;;;;9.50;7.10;;;;;;;31.97;40.50;99302.07;107253;1258;71848;-39
2023/07/06 09:26:36;;;;;;;13.30;7.40;;;;;;;31.98;41.32;99306.25;107314;1260;67597;-39
2023/07/06 09:29:28;;;;;;;8.00;7.00;;;;;;;32.03;41.16;99302.64;107283;1256;72663;-39
2023/07/06 09:32:13;;;;;;;12.30;7.60;;;;;;;32.11;41.38;99301.55;107333;1260;59510;-39
2023/07/06 09:34:47;;;;;;;9.60;7.30;;;;;;;32.11;41.19;99300.38;107216;1260;60439;-39
2023/07/06 09:37:15;;;;;;;12.20;7.40;;;;;;;32.10;41.71;99300.77;107257;1260;73486;-39
2023/07/06 09:39:56;;;;;;;9.70;7.20;;;;;;;32.12;41.87;99305.94;107286;1262;66423;-39
2023/07/06 09:42:24;;;;;;;10.50;7.40;;;;;;;32.16;41.86;99309.12;107297;1256;71965;-39
2023/07/06 09:44:52;;;;;;;8.50;7.50;;;;;;;32.15;41.79;99302.14;107279;1258;60190;-39
2023/07/06 09:47:20;;;;;;;10.90;7.40;;;;;;;32.12;42.16;99303.75;107240;1260;60039;-38
2023/07/06 09:50:15;;;;;;;8.50;7.10;;;;;;;32.10;41.03;99302.05;107286;1257;73015;-39
2023/07/06 09:52:42;;;;;;;9.80;7.20;;;;;;;32.09;41.87;99304.85;107303;1257;67913;-39
2023/07/06 09:55:19;;;;;;;7.10;6.40;;;;;;;32.12;41.35;99300.58;107303;1260;72808;-39
2023/07/06 09:57:50;;;;;;;11.30;7.20;;;;;;;32.20;41.35;99303.66;107204;1257;60063;-39
2023/07/06 10:00:22;;;;;;;7.40;6.70;;;;;;;32.25;40.82;99298.16;107321;1255;60041;-39
2023/07/06 10:02:56;;;;;;;10.10;6.80;;;;;;;32.30;40.57;99304.59;107305;1257;72024;-39
2023/07/06 10:05:33;;;;;;;10.70;6.60;;;;;;;32.37;40.43;99302.70;107322;1257;67621;-39
2023/07/06 10:08:22;;;;;;;10.80;6.50;;;;;;;32.44;40.04;99298.56;107289;1262;71373;-39
2023/07/06 10:10:55;;;;;;;9.10;6.60;;;;;;;32.58;40.30;99300.66;107329;1257;60519;-39
2023/07/06 10:13:32;;;;;;;7.90;6.80;;;;;;;32.66;40.49;99298.63;107319;1256;60010;-39
2023/07/06 10:16:36;;;;;;;8.60;6.30;;;;;;;32.77;40.36;99301.52;107287;1254;73104;-39
2023/07/06 10:19:16;;;;;;;10.30;7.00;;;;;;;32.90;38.65;99295.21;107295;1260;67916;-39
2023/07/06 10:21:55;;;;;;;6.60;5.90;;;;;;;33.01;38.07;99292.33;107304;1260;72636;-39
2023/07/06 10:24:38;;;;;;;10.00;6.20;;;;;;;33.18;37.62;99287.80;107330;1257;60086;-39
2023/07/06 10:27:25;;;;;;;8.70;6.60;;;;;;;33.35;37.80;99284.42;107304;1257;60045;-39
2023/07/06 10:29:56;;;;;;;10.80;6.40;;;;;;;33.52;37.56;99282.77;107296;1257;73216;-39
2023/07/06 10:32:26;;;;;;;8.20;6.30;;;;;;;33.69;36.89;99279.73;107301;1257;67571;-39
2023/07/06 10:34:58;;;;;;;8.40;6.20;;;;;;;33.87;37.21;99280.70;107292;1257;71475;-38
2023/07/06 10:37:27;;;;;;;7.80;6.50;;;;;;;34.08;36.61;99277.23;107274;1260;60062;-39
2023/07/06 10:40:04;;;;;;;10.20;6.30;;;;;;;34.28;36.37;99274.85;107247;1257;60034;-39
2023/07/06 10:42:32;;;;;;;9.80;6.80;;;;;;;34.48;36.29;99273.95;107320;1255;73107;-39
2023/07/06 10:45:02;;;;;;;9.60;6.90;;;;;;;34.68;36.66;99274.45;107315;1260;67589;-39
2023/07/06 10:47:33;;;;;;;10.80;6.50;;;;;;;34.89;36.08;99272.30;107269;1257;72685;-39
2023/07/06 10:50:07;;;;;;;8.00;6.20;;;;;;;35.11;35.65;99269.02;107285;1259;60831;-39
2023/07/06 10:52:36;;;;;;;11.00;6.20;;;;;;;35.34;34.95;99265.09;107281;1257;60453;-39
2023/07/06 10:55:11;;;;;;;8.40;5.70;;;;;;;35.40;34.67;99264.80;107279;1257;73847;-39
2023/07/06 10:57:44;;;;;;;7.20;5.90;;;;;;;35.51;34.01;99263.41;107327;1255;66297;-39
2023/07/06 11:00:16;;;;;;;7.50;5.70;;;;;;;35.62;32.74;99264.60;107330;1257;72721;-39
2023/07/06 11:02:44;;;;;;;8.60;5.90;;;;;;;35.56;32.44;99260.38;107344;1257;60348;-39
2023/07/06 11:05:29;;;;;;;7.00;5.70;;;;;;;35.40;33.01;99260.29;107328;1258;60277;-39
2023/07/06 11:08:01;;;;;;;8.30;6.10;;;;;;;35.22;33.42;99255.29;107345;1255;73226;-39
2023/07/06 11:10:37;;;;;;;8.20;5.90;;;;;;;35.10;33.36;99258.95;107325;1257;67640;-39
2023/07/06 11:13:04;;;;;;;9.90;5.60;;;;;;;35.10;34.26;99256.69;107331;1257;72694;-39
2023/07/06 11:15:35;;;;;;;6.70;5.70;;;;;;;35.33;33.90;99255.20;107319;1257;60382;-39
2023/07/06 11:18:15;;;;;;;8.90;5.70;;;;;;;35.67;33.57;99248.70;107316;1257;60268;-39
2023/07/06 11:20:55;;;;;;;6.50;5.20;;;;;;;36.09;32.95;99247.27;107279;1257;72580;-39
2023/07/06 11:23:31;;;;;;;11.60;5.90;;;;;;;36.45;31.54;99243.83;107308;1257;67590;-39
2023/07/06 11:25:59;;;;;;;6.70;5.30;;;;;;;36.57;32.02;99240.09;107309;1258;71446;-39
2023/07/06 11:28:27;;;;;;;8.60;5.70;;;;;;;36.70;31.48;99238.23;107085;1258;61121;-39
2023/07/06 11:30:55;;;;;;;7.20;5.70;;;;;;;36.86;31.42;99232.52;107127;1257;59683;-39
2023/07/06 11:33:58;;;;;;;8.90;5.40;;;;;;;37.11;31.17;99227.39;107309;1260;74315;-39